sensor_id;sensor_type;location;lat;lon;timestamp;temperature;humidity
53294;DHT22;39181;53.440;5.644;2024-01-25T00:00:51;6.70;99.90
53294;DHT22;39181;53.440;5.644;2024-01-25T00:03:17;7.10;99.90
53294;DHT22;39181;53.440;5.644;2024-01-25T00:05:43;7.00;99.90
53294;DHT22;39181;53.440;5.644;2024-01-25T00:08:08;7.00;99.90
53294;DHT22;39181;53.440;5.644;2024-01-25T00:10:34;6.60;99.90
53294;DHT22;39181;53.440;5.644;2024-01-25T00:13:00;7.00;99.90
53294;DHT22;39181;53.440;5.644;2024-01-25T00:15:25;6.70;99.90
53294;DHT22;39181;53.440;5.644;2024-01-25T00:17:51;6.60;99.90
53294;DHT22;39181;53.440;5.644;2024-01-25T00:20:16;6.60;99.90
53294;DHT22;39181;53.440;5.644;2024-01-25T00:22:42;6.70;99.90
53294;DHT22;39181;53.440;5.644;2024-01-25T00:25:08;6.50;99.90
53294;DHT22;39181;53.440;5.644;2024-01-25T00:27:33;6.60;99.90
53294;DHT22;39181;53.440;5.644;2024-01-25T00:29:59;6.60;99.90
53294;DHT22;39181;53.440;5.644;2024-01-25T00:32:25;6.90;99.90
53294;DHT22;39181;53.440;5.644;2024-01-25T00:34:50;6.90;99.90
53294;DHT22;39181;53.440;5.644;2024-01-25T00:37:16;6.80;99.90
53294;DHT22;39181;53.440;5.644;2024-01-25T00:39:42;6.80;99.90
53294;DHT22;39181;53.440;5.644;2024-01-25T00:42:12;6.70;99.90
53294;DHT22;39181;53.440;5.644;2024-01-25T00:44:38;6.50;99.90
53294;DHT22;39181;53.440;5.644;2024-01-25T00:47:04;6.80;99.90
53294;DHT22;39181;53.440;5.644;2024-01-25T00:49:30;6.50;99.90
53294;DHT22;39181;53.440;5.644;2024-01-25T00:51:59;6.80;99.90
53294;DHT22;39181;53.440;5.644;2024-01-25T00:54:28;6.50;99.90
53294;DHT22;39181;53.440;5.644;2024-01-25T00:56:54;6.80;99.90
53294;DHT22;39181;53.440;5.644;2024-01-25T00:59:20;6.50;99.90
53294;DHT22;39181;53.440;5.644;2024-01-25T01:01:47;6.60;99.90
53294;DHT22;39181;53.440;5.644;2024-01-25T01:04:14;6.70;99.90
53294;DHT22;39181;53.440;5.644;2024-01-25T01:06:40;6.40;99.90
53294;DHT22;39181;53.440;5.644;2024-01-25T01:09:05;6.70;99.90
53294;DHT22;39181;53.440;5.644;2024-01-25T01:11:31;6.80;99.90
53294;DHT22;39181;53.440;5.644;2024-01-25T01:13:57;6.70;99.90
53294;DHT22;39181;53.440;5.644;2024-01-25T01:16:22;6.40;99.90
53294;DHT22;39181;53.440;5.644;2024-01-25T01:18:48;6.80;99.90
53294;DHT22;39181;53.440;5.644;2024-01-25T01:21:14;6.40;99.90
53294;DHT22;39181;53.440;5.644;2024-01-25T01:23:39;6.30;99.90
53294;DHT22;39181;53.440;5.644;2024-01-25T01:26:05;6.30;99.90
53294;DHT22;39181;53.440;5.644;2024-01-25T01:28:31;6.50;99.90
53294;DHT22;39181;53.440;5.644;2024-01-25T01:30:56;6.60;99.90
53294;DHT22;39181;53.440;5.644;2024-01-25T01:33:22;6.30;99.90
53294;DHT22;39181;53.440;5.644;2024-01-25T01:35:47;6.40;99.90
53294;DHT22;39181;53.440;5.644;2024-01-25T01:38:13;6.40;99.90
53294;DHT22;39181;53.440;5.644;2024-01-25T01:40:39;6.30;99.90
53294;DHT22;39181;53.440;5.644;2024-01-25T01:43:04;6.50;99.90
53294;DHT22;39181;53.440;5.644;2024-01-25T01:45:30;6.50;99.90
53294;DHT22;39181;53.440;5.644;2024-01-25T01:47:56;6.60;99.90
53294;DHT22;39181;53.440;5.644;2024-01-25T01:50:22;6.20;99.90
53294;DHT22;39181;53.440;5.644;2024-01-25T01:52:50;6.20;99.90
53294;DHT22;39181;53.440;5.644;2024-01-25T01:55:17;6.30;99.90
53294;DHT22;39181;53.440;5.644;2024-01-25T01:57:43;6.20;99.90
53294;DHT22;39181;53.440;5.644;2024-01-25T02:00:09;6.40;99.90
53294;DHT22;39181;53.440;5.644;2024-01-25T02:02:36;6.60;99.90
53294;DHT22;39181;53.440;5.644;2024-01-25T02:05:01;6.10;99.90
53294;DHT22;39181;53.440;5.644;2024-01-25T02:07:28;6.50;99.90
53294;DHT22;39181;53.440;5.644;2024-01-25T02:09:53;6.20;99.90
53294;DHT22;39181;53.440;5.644;2024-01-25T02:12:19;6.50;99.90
53294;DHT22;39181;53.440;5.644;2024-01-25T02:14:45;6.50;99.90
53294;DHT22;39181;53.440;5.644;2024-01-25T02:17:11;6.50;99.90
53294;DHT22;39181;53.440;5.644;2024-01-25T02:19:36;6.20;99.90
53294;DHT22;39181;53.440;5.644;2024-01-25T02:22:04;6.50;99.90
53294;DHT22;39181;53.440;5.644;2024-01-25T02:24:29;6.40;99.90
53294;DHT22;39181;53.440;5.644;2024-01-25T02:26:55;6.50;99.90
53294;DHT22;39181;53.440;5.644;2024-01-25T02:29:21;6.10;99.90
53294;DHT22;39181;53.440;5.644;2024-01-25T02:31:47;6.10;99.90
53294;DHT22;39181;53.440;5.644;2024-01-25T02:34:12;6.10;99.90
53294;DHT22;39181;53.440;5.644;2024-01-25T02:36:38;6.40;99.90
53294;DHT22;39181;53.440;5.644;2024-01-25T02:39:03;6.30;99.90
53294;DHT22;39181;53.440;5.644;2024-01-25T02:41:30;6.50;99.90
53294;DHT22;39181;53.440;5.644;2024-01-25T02:43:56;6.20;99.90
53294;DHT22;39181;53.440;5.644;2024-01-25T02:46:22;6.30;99.90
53294;DHT22;39181;53.440;5.644;2024-01-25T02:48:47;6.10;99.90
53294;DHT22;39181;53.440;5.644;2024-01-25T02:51:13;6.10;99.90
53294;DHT22;39181;53.440;5.644;2024-01-25T02:53:39;5.90;99.90
53294;DHT22;39181;53.440;5.644;2024-01-25T02:56:05;6.20;99.90
53294;DHT22;39181;53.440;5.644;2024-01-25T02:58:31;6.40;99.90
53294;DHT22;39181;53.440;5.644;2024-01-25T03:00:57;6.40;99.90
53294;DHT22;39181;53.440;5.644;2024-01-25T03:03:22;6.00;99.90
53294;DHT22;39181;53.440;5.644;2024-01-25T03:05:49;6.00;99.90
53294;DHT22;39181;53.440;5.644;2024-01-25T03:08:14;6.30;99.90
53294;DHT22;39181;53.440;5.644;2024-01-25T03:10:40;6.40;99.90
53294;DHT22;39181;53.440;5.644;2024-01-25T03:13:05;6.20;99.90
53294;DHT22;39181;53.440;5.644;2024-01-25T03:15:31;6.00;99.90
53294;DHT22;39181;53.440;5.644;2024-01-25T03:17:57;6.00;99.90
53294;DHT22;39181;53.440;5.644;2024-01-25T03:20:23;6.00;99.90
53294;DHT22;39181;53.440;5.644;2024-01-25T03:22:48;6.40;99.90
53294;DHT22;39181;53.440;5.644;2024-01-25T03:25:14;5.90;99.90
53294;DHT22;39181;53.440;5.644;2024-01-25T03:27:40;6.40;99.90
53294;DHT22;39181;53.440;5.644;2024-01-25T03:30:06;5.90;99.90
53294;DHT22;39181;53.440;5.644;2024-01-25T03:32:33;6.30;99.90
53294;DHT22;39181;53.440;5.644;2024-01-25T03:34:58;6.30;99.90
53294;DHT22;39181;53.440;5.644;2024-01-25T03:37:24;6.20;99.90
53294;DHT22;39181;53.440;5.644;2024-01-25T03:39:50;6.20;99.90
53294;DHT22;39181;53.440;5.644;2024-01-25T03:42:15;6.00;99.90
53294;DHT22;39181;53.440;5.644;2024-01-25T03:44:41;6.20;99.90
53294;DHT22;39181;53.440;5.644;2024-01-25T03:47:08;6.00;99.90
53294;DHT22;39181;53.440;5.644;2024-01-25T03:49:34;6.00;99.90
53294;DHT22;39181;53.440;5.644;2024-01-25T03:51:59;6.10;99.90
53294;DHT22;39181;53.440;5.644;2024-01-25T03:54:25;5.90;99.90
53294;DHT22;39181;53.440;5.644;2024-01-25T03:56:51;6.00;99.90
53294;DHT22;39181;53.440;5.644;2024-01-25T03:59:16;5.80;99.90
53294;DHT22;39181;53.440;5.644;2024-01-25T04:01:45;5.70;99.90
53294;DHT22;39181;53.440;5.644;2024-01-25T04:04:13;5.70;99.90
53294;DHT22;39181;53.440;5.644;2024-01-25T04:06:41;6.10;99.90
53294;DHT22;39181;53.440;5.644;2024-01-25T04:09:13;6.20;99.90
53294;DHT22;39181;53.440;5.644;2024-01-25T04:11:40;6.20;99.90
53294;DHT22;39181;53.440;5.644;2024-01-25T04:14:06;6.10;99.90
53294;DHT22;39181;53.440;5.644;2024-01-25T04:16:33;5.80;99.90
53294;DHT22;39181;53.440;5.644;2024-01-25T04:18:58;5.90;99.90
53294;DHT22;39181;53.440;5.644;2024-01-25T04:21:24;5.70;99.90
53294;DHT22;39181;53.440;5.644;2024-01-25T04:23:50;5.90;99.90
53294;DHT22;39181;53.440;5.644;2024-01-25T04:26:15;6.10;99.90
53294;DHT22;39181;53.440;5.644;2024-01-25T04:28:44;6.00;99.90
53294;DHT22;39181;53.440;5.644;2024-01-25T04:31:09;5.80;99.90
53294;DHT22;39181;53.440;5.644;2024-01-25T04:33:35;5.60;99.90
53294;DHT22;39181;53.440;5.644;2024-01-25T04:36:01;5.80;99.90
53294;DHT22;39181;53.440;5.644;2024-01-25T04:38:26;6.00;99.90
53294;DHT22;39181;53.440;5.644;2024-01-25T04:40:52;5.50;99.90
53294;DHT22;39181;53.440;5.644;2024-01-25T04:43:17;5.90;99.90
53294;DHT22;39181;53.440;5.644;2024-01-25T04:45:43;5.80;99.90
53294;DHT22;39181;53.440;5.644;2024-01-25T04:48:09;5.90;99.90
53294;DHT22;39181;53.440;5.644;2024-01-25T04:50:34;5.60;99.90
53294;DHT22;39181;53.440;5.644;2024-01-25T04:53:02;5.90;99.90
53294;DHT22;39181;53.440;5.644;2024-01-25T04:55:28;5.70;99.90
53294;DHT22;39181;53.440;5.644;2024-01-25T04:57:53;5.80;99.90
53294;DHT22;39181;53.440;5.644;2024-01-25T05:00:22;5.60;99.90
53294;DHT22;39181;53.440;5.644;2024-01-25T05:02:48;5.60;99.90
53294;DHT22;39181;53.440;5.644;2024-01-25T05:05:14;6.00;99.90
53294;DHT22;39181;53.440;5.644;2024-01-25T05:07:40;5.70;99.90
53294;DHT22;39181;53.440;5.644;2024-01-25T05:10:06;6.00;99.90
53294;DHT22;39181;53.440;5.644;2024-01-25T05:12:33;6.00;99.90
53294;DHT22;39181;53.440;5.644;2024-01-25T05:14:58;5.90;99.90
53294;DHT22;39181;53.440;5.644;2024-01-25T05:17:24;5.60;99.90
53294;DHT22;39181;53.440;5.644;2024-01-25T05:19:50;5.90;99.90
53294;DHT22;39181;53.440;5.644;2024-01-25T05:22:16;6.00;99.90
53294;DHT22;39181;53.440;5.644;2024-01-25T05:24:41;5.70;99.90
53294;DHT22;39181;53.440;5.644;2024-01-25T05:27:07;5.70;99.90
53294;DHT22;39181;53.440;5.644;2024-01-25T05:29:33;5.80;99.90
53294;DHT22;39181;53.440;5.644;2024-01-25T05:31:58;5.90;99.90
53294;DHT22;39181;53.440;5.644;2024-01-25T05:34:24;5.70;99.90
53294;DHT22;39181;53.440;5.644;2024-01-25T05:36:50;5.90;99.90
53294;DHT22;39181;53.440;5.644;2024-01-25T05:39:15;5.50;99.90
53294;DHT22;39181;53.440;5.644;2024-01-25T05:41:41;5.50;99.90
53294;DHT22;39181;53.440;5.644;2024-01-25T05:44:06;5.70;99.90
53294;DHT22;39181;53.440;5.644;2024-01-25T05:46:32;5.90;99.90
53294;DHT22;39181;53.440;5.644;2024-01-25T05:48:57;5.80;99.90
53294;DHT22;39181;53.440;5.644;2024-01-25T05:51:24;5.80;99.90
53294;DHT22;39181;53.440;5.644;2024-01-25T05:53:49;5.50;99.90
53294;DHT22;39181;53.440;5.644;2024-01-25T05:56:15;5.70;99.90
53294;DHT22;39181;53.440;5.644;2024-01-25T05:58:40;5.80;99.90
53294;DHT22;39181;53.440;5.644;2024-01-25T06:01:06;5.70;99.90
53294;DHT22;39181;53.440;5.644;2024-01-25T06:03:32;5.60;99.90
53294;DHT22;39181;53.440;5.644;2024-01-25T06:05:58;5.40;99.90
53294;DHT22;39181;53.440;5.644;2024-01-25T06:08:23;5.90;99.90
53294;DHT22;39181;53.440;5.644;2024-01-25T06:10:49;5.70;99.90
53294;DHT22;39181;53.440;5.644;2024-01-25T06:13:15;5.60;99.90
53294;DHT22;39181;53.440;5.644;2024-01-25T06:15:41;5.80;99.90
53294;DHT22;39181;53.440;5.644;2024-01-25T06:18:06;5.40;99.90
53294;DHT22;39181;53.440;5.644;2024-01-25T06:20:32;5.60;99.90
53294;DHT22;39181;53.440;5.644;2024-01-25T06:22:58;5.70;99.90
53294;DHT22;39181;53.440;5.644;2024-01-25T06:25:26;5.70;99.90
53294;DHT22;39181;53.440;5.644;2024-01-25T06:27:56;5.70;99.90
53294;DHT22;39181;53.440;5.644;2024-01-25T06:30:22;5.80;99.90
53294;DHT22;39181;53.440;5.644;2024-01-25T06:32:48;5.40;99.90
53294;DHT22;39181;53.440;5.644;2024-01-25T06:35:14;5.60;99.90
53294;DHT22;39181;53.440;5.644;2024-01-25T06:37:40;5.40;99.90
53294;DHT22;39181;53.440;5.644;2024-01-25T06:40:07;5.30;99.90
53294;DHT22;39181;53.440;5.644;2024-01-25T06:42:33;5.70;99.90
53294;DHT22;39181;53.440;5.644;2024-01-25T06:44:58;5.80;99.90
53294;DHT22;39181;53.440;5.644;2024-01-25T06:47:24;5.30;99.90
53294;DHT22;39181;53.440;5.644;2024-01-25T06:49:50;5.90;99.90
53294;DHT22;39181;53.440;5.644;2024-01-25T06:52:17;5.80;99.90
53294;DHT22;39181;53.440;5.644;2024-01-25T06:54:43;5.50;99.90
53294;DHT22;39181;53.440;5.644;2024-01-25T06:57:08;5.70;99.90
53294;DHT22;39181;53.440;5.644;2024-01-25T06:59:34;5.30;99.90
53294;DHT22;39181;53.440;5.644;2024-01-25T07:02:00;5.70;99.90
53294;DHT22;39181;53.440;5.644;2024-01-25T07:04:28;5.40;99.90
53294;DHT22;39181;53.440;5.644;2024-01-25T07:06:53;5.30;99.90
53294;DHT22;39181;53.440;5.644;2024-01-25T07:09:19;5.20;99.90
53294;DHT22;39181;53.440;5.644;2024-01-25T07:11:44;5.30;99.90
53294;DHT22;39181;53.440;5.644;2024-01-25T07:14:10;5.20;99.90
53294;DHT22;39181;53.440;5.644;2024-01-25T07:16:36;5.70;99.90
53294;DHT22;39181;53.440;5.644;2024-01-25T07:19:02;5.70;99.90
53294;DHT22;39181;53.440;5.644;2024-01-25T07:21:28;5.80;99.90
53294;DHT22;39181;53.440;5.644;2024-01-25T07:23:59;5.30;99.90
53294;DHT22;39181;53.440;5.644;2024-01-25T07:26:25;5.60;99.90
53294;DHT22;39181;53.440;5.644;2024-01-25T07:28:50;5.70;99.90
53294;DHT22;39181;53.440;5.644;2024-01-25T07:31:20;5.10;99.90
53294;DHT22;39181;53.440;5.644;2024-01-25T07:33:45;5.60;99.90
53294;DHT22;39181;53.440;5.644;2024-01-25T07:36:11;5.60;99.90
53294;DHT22;39181;53.440;5.644;2024-01-25T07:38:36;5.00;99.90
53294;DHT22;39181;53.440;5.644;2024-01-25T07:41:02;5.50;99.90
53294;DHT22;39181;53.440;5.644;2024-01-25T07:43:28;4.90;99.90
53294;DHT22;39181;53.440;5.644;2024-01-25T07:45:53;5.30;99.90
53294;DHT22;39181;53.440;5.644;2024-01-25T07:48:19;4.90;99.90
53294;DHT22;39181;53.440;5.644;2024-01-25T07:50:44;4.90;99.90
53294;DHT22;39181;53.440;5.644;2024-01-25T07:53:10;5.50;99.90
53294;DHT22;39181;53.440;5.644;2024-01-25T07:55:37;4.90;99.90
53294;DHT22;39181;53.440;5.644;2024-01-25T07:58:03;5.30;99.90
53294;DHT22;39181;53.440;5.644;2024-01-25T08:00:28;5.00;99.90
53294;DHT22;39181;53.440;5.644;2024-01-25T08:02:54;4.90;99.90
53294;DHT22;39181;53.440;5.644;2024-01-25T08:05:20;4.90;99.90
53294;DHT22;39181;53.440;5.644;2024-01-25T08:07:46;5.50;99.90
53294;DHT22;39181;53.440;5.644;2024-01-25T08:10:12;5.00;99.90
53294;DHT22;39181;53.440;5.644;2024-01-25T08:12:38;5.50;99.90
53294;DHT22;39181;53.440;5.644;2024-01-25T08:15:06;5.20;99.90
53294;DHT22;39181;53.440;5.644;2024-01-25T08:17:31;5.50;99.90
53294;DHT22;39181;53.440;5.644;2024-01-25T08:19:57;5.30;99.90
53294;DHT22;39181;53.440;5.644;2024-01-25T08:22:22;5.40;99.90
53294;DHT22;39181;53.440;5.644;2024-01-25T08:24:48;5.20;99.90
53294;DHT22;39181;53.440;5.644;2024-01-25T08:27:14;4.90;99.90
53294;DHT22;39181;53.440;5.644;2024-01-25T08:29:39;4.90;99.90
53294;DHT22;39181;53.440;5.644;2024-01-25T08:32:06;5.50;99.90
53294;DHT22;39181;53.440;5.644;2024-01-25T08:34:32;5.50;99.90
53294;DHT22;39181;53.440;5.644;2024-01-25T08:36:57;5.20;99.90
53294;DHT22;39181;53.440;5.644;2024-01-25T08:39:26;5.00;99.90
53294;DHT22;39181;53.440;5.644;2024-01-25T08:41:52;5.40;99.90
53294;DHT22;39181;53.440;5.644;2024-01-25T08:44:17;5.50;99.90
53294;DHT22;39181;53.440;5.644;2024-01-25T08:46:43;5.10;99.90
53294;DHT22;39181;53.440;5.644;2024-01-25T08:49:09;5.10;99.90
53294;DHT22;39181;53.440;5.644;2024-01-25T08:51:35;5.10;99.90
53294;DHT22;39181;53.440;5.644;2024-01-25T08:54:01;5.70;99.90
53294;DHT22;39181;53.440;5.644;2024-01-25T08:56:29;5.30;99.90
53294;DHT22;39181;53.440;5.644;2024-01-25T08:58:54;5.80;99.90
53294;DHT22;39181;53.440;5.644;2024-01-25T09:01:20;5.70;99.90
53294;DHT22;39181;53.440;5.644;2024-01-25T09:03:45;5.60;99.90
53294;DHT22;39181;53.440;5.644;2024-01-25T09:06:11;5.40;99.90
53294;DHT22;39181;53.440;5.644;2024-01-25T09:08:37;5.50;99.90
53294;DHT22;39181;53.440;5.644;2024-01-25T09:11:03;5.50;99.90
53294;DHT22;39181;53.440;5.644;2024-01-25T09:13:29;5.30;99.90
53294;DHT22;39181;53.440;5.644;2024-01-25T09:15:55;6.00;99.90
53294;DHT22;39181;53.440;5.644;2024-01-25T09:18:21;5.40;99.90
53294;DHT22;39181;53.440;5.644;2024-01-25T09:20:46;5.80;99.90
53294;DHT22;39181;53.440;5.644;2024-01-25T09:23:14;5.90;99.90
53294;DHT22;39181;53.440;5.644;2024-01-25T09:25:42;5.40;99.90
53294;DHT22;39181;53.440;5.644;2024-01-25T09:28:08;5.50;99.90
53294;DHT22;39181;53.440;5.644;2024-01-25T09:30:34;6.20;99.90
53294;DHT22;39181;53.440;5.644;2024-01-25T09:32:59;6.20;99.90
53294;DHT22;39181;53.440;5.644;2024-01-25T09:35:25;6.20;99.90
53294;DHT22;39181;53.440;5.644;2024-01-25T09:37:50;6.10;99.90
53294;DHT22;39181;53.440;5.644;2024-01-25T09:40:18;6.20;99.90
53294;DHT22;39181;53.440;5.644;2024-01-25T09:42:46;5.50;99.90
53294;DHT22;39181;53.440;5.644;2024-01-25T09:45:16;6.10;99.90
53294;DHT22;39181;53.440;5.644;2024-01-25T09:47:43;5.60;99.90
53294;DHT22;39181;53.440;5.644;2024-01-25T09:50:09;6.20;99.90
53294;DHT22;39181;53.440;5.644;2024-01-25T09:52:34;6.20;99.90
53294;DHT22;39181;53.440;5.644;2024-01-25T09:55:01;6.10;99.90
53294;DHT22;39181;53.440;5.644;2024-01-25T09:57:28;6.20;99.90
53294;DHT22;39181;53.440;5.644;2024-01-25T09:59:54;5.80;99.90
53294;DHT22;39181;53.440;5.644;2024-01-25T10:02:23;5.60;99.90
53294;DHT22;39181;53.440;5.644;2024-01-25T10:04:52;5.50;99.90
53294;DHT22;39181;53.440;5.644;2024-01-25T10:07:40;5.50;99.90
53294;DHT22;39181;53.440;5.644;2024-01-25T10:10:06;6.20;99.90
53294;DHT22;39181;53.440;5.644;2024-01-25T10:12:32;6.20;99.90
53294;DHT22;39181;53.440;5.644;2024-01-25T10:14:58;5.70;99.90
53294;DHT22;39181;53.440;5.644;2024-01-25T10:17:24;5.70;99.90
53294;DHT22;39181;53.440;5.644;2024-01-25T10:19:50;5.90;99.90
53294;DHT22;39181;53.440;5.644;2024-01-25T10:22:16;6.40;99.90
53294;DHT22;39181;53.440;5.644;2024-01-25T10:24:42;6.30;99.90
53294;DHT22;39181;53.440;5.644;2024-01-25T10:27:08;6.10;99.90
53294;DHT22;39181;53.440;5.644;2024-01-25T10:29:36;6.10;99.90
53294;DHT22;39181;53.440;5.644;2024-01-25T10:32:06;6.70;99.90
53294;DHT22;39181;53.440;5.644;2024-01-25T10:34:35;6.80;99.90
53294;DHT22;39181;53.440;5.644;2024-01-25T10:37:03;6.70;99.90
53294;DHT22;39181;53.440;5.644;2024-01-25T10:39:30;6.80;99.90
53294;DHT22;39181;53.440;5.644;2024-01-25T10:41:58;6.90;99.90
53294;DHT22;39181;53.440;5.644;2024-01-25T10:44:24;7.00;99.90
53294;DHT22;39181;53.440;5.644;2024-01-25T10:46:50;7.00;99.90
53294;DHT22;39181;53.440;5.644;2024-01-25T10:49:17;7.10;99.90
53294;DHT22;39181;53.440;5.644;2024-01-25T10:51:44;7.10;99.90
53294;DHT22;39181;53.440;5.644;2024-01-25T10:54:11;7.00;99.90
53294;DHT22;39181;53.440;5.644;2024-01-25T10:56:38;6.80;99.90
53294;DHT22;39181;53.440;5.644;2024-01-25T10:59:06;6.80;99.90
53294;DHT22;39181;53.440;5.644;2024-01-25T11:01:33;6.80;99.90
53294;DHT22;39181;53.440;5.644;2024-01-25T11:03:59;7.20;99.90
53294;DHT22;39181;53.440;5.644;2024-01-25T11:06:27;6.90;99.90
53294;DHT22;39181;53.440;5.644;2024-01-25T11:09:06;7.30;99.90
53294;DHT22;39181;53.440;5.644;2024-01-25T11:11:32;6.90;99.90
53294;DHT22;39181;53.440;5.644;2024-01-25T11:13:58;7.00;99.90
53294;DHT22;39181;53.440;5.644;2024-01-25T11:16:33;7.30;99.90
53294;DHT22;39181;53.440;5.644;2024-01-25T11:19:00;7.30;99.90
53294;DHT22;39181;53.440;5.644;2024-01-25T11:21:45;7.00;99.90
53294;DHT22;39181;53.440;5.644;2024-01-25T11:26:43;7.30;99.90
53294;DHT22;39181;53.440;5.644;2024-01-25T11:29:08;7.10;99.90
53294;DHT22;39181;53.440;5.644;2024-01-25T11:31:34;7.30;99.90
53294;DHT22;39181;53.440;5.644;2024-01-25T11:34:01;7.00;99.90
53294;DHT22;39181;53.440;5.644;2024-01-25T11:36:27;6.90;99.90
53294;DHT22;39181;53.440;5.644;2024-01-25T11:38:52;7.00;99.90
53294;DHT22;39181;53.440;5.644;2024-01-25T11:41:19;7.00;99.90
53294;DHT22;39181;53.440;5.644;2024-01-25T11:43:44;7.10;99.90
53294;DHT22;39181;53.440;5.644;2024-01-25T11:46:10;7.40;99.90
53294;DHT22;39181;53.440;5.644;2024-01-25T11:48:40;7.40;99.90
53294;DHT22;39181;53.440;5.644;2024-01-25T11:51:06;7.10;99.90
53294;DHT22;39181;53.440;5.644;2024-01-25T11:53:34;7.10;99.90
53294;DHT22;39181;53.440;5.644;2024-01-25T11:55:59;7.60;99.90
53294;DHT22;39181;53.440;5.644;2024-01-25T11:58:25;7.60;99.90
53294;DHT22;39181;53.440;5.644;2024-01-25T12:00:51;7.30;99.90
53294;DHT22;39181;53.440;5.644;2024-01-25T12:03:17;7.20;99.90
53294;DHT22;39181;53.440;5.644;2024-01-25T12:05:43;7.50;99.90
53294;DHT22;39181;53.440;5.644;2024-01-25T12:08:13;7.10;99.90
53294;DHT22;39181;53.440;5.644;2024-01-25T12:10:39;7.00;99.90
53294;DHT22;39181;53.440;5.644;2024-01-25T12:13:09;7.30;99.90
53294;DHT22;39181;53.440;5.644;2024-01-25T12:15:35;7.00;99.90
53294;DHT22;39181;53.440;5.644;2024-01-25T12:18:01;7.10;99.90
53294;DHT22;39181;53.440;5.644;2024-01-25T12:20:28;6.80;99.90
53294;DHT22;39181;53.440;5.644;2024-01-25T12:22:53;7.20;99.90
53294;DHT22;39181;53.440;5.644;2024-01-25T12:25:19;7.00;99.90
53294;DHT22;39181;53.440;5.644;2024-01-25T12:27:47;7.00;99.90
53294;DHT22;39181;53.440;5.644;2024-01-25T12:30:14;7.00;99.90
53294;DHT22;39181;53.440;5.644;2024-01-25T12:32:40;7.50;99.90
53294;DHT22;39181;53.440;5.644;2024-01-25T12:35:06;7.20;99.90
53294;DHT22;39181;53.440;5.644;2024-01-25T12:37:36;7.30;99.90
53294;DHT22;39181;53.440;5.644;2024-01-25T12:40:02;7.80;99.90
53294;DHT22;39181;53.440;5.644;2024-01-25T12:42:27;7.50;99.90
53294;DHT22;39181;53.440;5.644;2024-01-25T12:44:53;7.90;99.90
53294;DHT22;39181;53.440;5.644;2024-01-25T12:47:20;7.80;99.90
53294;DHT22;39181;53.440;5.644;2024-01-25T12:49:45;7.90;99.90
53294;DHT22;39181;53.440;5.644;2024-01-25T12:52:13;7.80;99.90
53294;DHT22;39181;53.440;5.644;2024-01-25T12:54:39;7.90;99.90
53294;DHT22;39181;53.440;5.644;2024-01-25T12:57:05;7.50;99.90
53294;DHT22;39181;53.440;5.644;2024-01-25T12:59:32;7.40;99.90
53294;DHT22;39181;53.440;5.644;2024-01-25T13:01:58;7.80;99.90
53294;DHT22;39181;53.440;5.644;2024-01-25T13:04:24;7.40;99.90
53294;DHT22;39181;53.440;5.644;2024-01-25T13:06:52;7.30;99.90
53294;DHT22;39181;53.440;5.644;2024-01-25T13:09:18;7.70;99.90
53294;DHT22;39181;53.440;5.644;2024-01-25T13:11:43;7.40;99.90
53294;DHT22;39181;53.440;5.644;2024-01-25T13:14:09;7.40;99.90
53294;DHT22;39181;53.440;5.644;2024-01-25T13:16:35;7.50;99.90
53294;DHT22;39181;53.440;5.644;2024-01-25T13:19:01;7.30;99.90
53294;DHT22;39181;53.440;5.644;2024-01-25T13:21:26;7.40;99.90
53294;DHT22;39181;53.440;5.644;2024-01-25T13:23:52;7.40;99.90
53294;DHT22;39181;53.440;5.644;2024-01-25T13:26:18;7.40;99.90
53294;DHT22;39181;53.440;5.644;2024-01-25T13:28:43;7.70;99.90
53294;DHT22;39181;53.440;5.644;2024-01-25T13:31:09;7.70;99.90
53294;DHT22;39181;53.440;5.644;2024-01-25T13:33:34;7.70;99.90
53294;DHT22;39181;53.440;5.644;2024-01-25T13:36:00;7.70;99.90
53294;DHT22;39181;53.440;5.644;2024-01-25T13:38:26;7.70;99.90
53294;DHT22;39181;53.440;5.644;2024-01-25T13:40:51;7.40;99.90
53294;DHT22;39181;53.440;5.644;2024-01-25T13:43:17;7.40;99.90
53294;DHT22;39181;53.440;5.644;2024-01-25T13:45:43;7.50;99.90
53294;DHT22;39181;53.440;5.644;2024-01-25T13:48:09;7.40;99.90
53294;DHT22;39181;53.440;5.644;2024-01-25T13:50:34;7.70;99.90
53294;DHT22;39181;53.440;5.644;2024-01-25T13:53:00;7.40;99.90
53294;DHT22;39181;53.440;5.644;2024-01-25T13:55:25;7.80;99.90
53294;DHT22;39181;53.440;5.644;2024-01-25T13:57:51;7.40;99.90
53294;DHT22;39181;53.440;5.644;2024-01-25T14:00:17;7.70;99.90
53294;DHT22;39181;53.440;5.644;2024-01-25T14:02:42;7.30;99.90
53294;DHT22;39181;53.440;5.644;2024-01-25T14:05:11;7.30;99.90
53294;DHT22;39181;53.440;5.644;2024-01-25T14:07:40;7.60;99.90
53294;DHT22;39181;53.440;5.644;2024-01-25T14:10:06;7.40;99.90
53294;DHT22;39181;53.440;5.644;2024-01-25T14:12:31;7.60;99.90
53294;DHT22;39181;53.440;5.644;2024-01-25T14:14:57;7.60;99.90
53294;DHT22;39181;53.440;5.644;2024-01-25T14:17:22;7.20;99.90
53294;DHT22;39181;53.440;5.644;2024-01-25T14:19:48;7.20;99.90
53294;DHT22;39181;53.440;5.644;2024-01-25T14:22:14;7.30;99.90
53294;DHT22;39181;53.440;5.644;2024-01-25T14:24:39;7.20;99.90
53294;DHT22;39181;53.440;5.644;2024-01-25T14:27:05;7.20;99.90
53294;DHT22;39181;53.440;5.644;2024-01-25T14:29:31;7.60;99.90
53294;DHT22;39181;53.440;5.644;2024-01-25T14:31:59;7.40;99.90
53294;DHT22;39181;53.440;5.644;2024-01-25T14:34:24;7.30;99.90
53294;DHT22;39181;53.440;5.644;2024-01-25T14:36:50;7.60;99.90
53294;DHT22;39181;53.440;5.644;2024-01-25T14:39:16;7.20;99.90
53294;DHT22;39181;53.440;5.644;2024-01-25T14:41:45;7.60;99.90
53294;DHT22;39181;53.440;5.644;2024-01-25T14:44:11;7.60;99.90
53294;DHT22;39181;53.440;5.644;2024-01-25T14:46:37;7.40;99.90
53294;DHT22;39181;53.440;5.644;2024-01-25T14:49:03;7.40;99.90
53294;DHT22;39181;53.440;5.644;2024-01-25T14:51:29;7.30;99.90
53294;DHT22;39181;53.440;5.644;2024-01-25T14:53:55;7.00;99.90
53294;DHT22;39181;53.440;5.644;2024-01-25T14:56:20;7.10;99.90
53294;DHT22;39181;53.440;5.644;2024-01-25T14:58:46;7.00;99.90
53294;DHT22;39181;53.440;5.644;2024-01-25T15:01:16;7.40;99.90
53294;DHT22;39181;53.440;5.644;2024-01-25T15:03:46;7.10;99.90
53294;DHT22;39181;53.440;5.644;2024-01-25T15:06:12;6.90;99.90
53294;DHT22;39181;53.440;5.644;2024-01-25T15:08:38;7.00;99.90
53294;DHT22;39181;53.440;5.644;2024-01-25T15:11:06;7.10;99.90
53294;DHT22;39181;53.440;5.644;2024-01-25T15:13:31;7.20;99.90
53294;DHT22;39181;53.440;5.644;2024-01-25T15:15:57;7.00;99.90
53294;DHT22;39181;53.440;5.644;2024-01-25T15:18:22;6.70;99.90
53294;DHT22;39181;53.440;5.644;2024-01-25T15:20:48;6.70;99.90
53294;DHT22;39181;53.440;5.644;2024-01-25T15:23:14;7.10;99.90
53294;DHT22;39181;53.440;5.644;2024-01-25T15:25:39;6.70;99.90
53294;DHT22;39181;53.440;5.644;2024-01-25T15:28:06;7.10;99.90
53294;DHT22;39181;53.440;5.644;2024-01-25T15:30:31;6.80;99.90
53294;DHT22;39181;53.440;5.644;2024-01-25T15:32:57;6.70;99.90
53294;DHT22;39181;53.440;5.644;2024-01-25T15:35:23;7.10;99.90
53294;DHT22;39181;53.440;5.644;2024-01-25T15:37:48;6.80;99.90
53294;DHT22;39181;53.440;5.644;2024-01-25T15:40:14;7.10;99.90